createdAt,value
2019-05-12T00:03:30.215Z,99.90
2019-05-12T00:06:17.718Z,99.90
2019-05-12T00:09:02.189Z,99.90
2019-05-12T00:11:48.430Z,99.90
2019-05-12T00:14:33.822Z,99.90
2019-05-12T00:17:20.024Z,99.90
2019-05-12T00:20:05.372Z,99.90
2019-05-12T00:22:53.153Z,99.90
2019-05-12T00:25:38.743Z,99.90
2019-05-12T00:28:28.399Z,99.90
2019-05-12T00:31:27.994Z,99.90
2019-05-12T00:34:11.330Z,99.90
2019-05-12T00:36:57.728Z,99.90
2019-05-12T00:42:28.636Z,99.90
2019-05-12T00:45:11.891Z,99.90
2019-05-12T00:47:58.275Z,99.90
2019-05-12T00:50:42.377Z,99.90
2019-05-12T00:53:37.213Z,99.90
2019-05-12T00:56:13.935Z,99.90
2019-05-12T00:58:58.401Z,99.90
2019-05-12T01:01:42.642Z,99.90
2019-05-12T01:04:29.174Z,99.90
2019-05-12T01:07:13.277Z,99.90
2019-05-12T01:09:45.508Z,99.90
2019-05-12T01:12:30.257Z,99.90
2019-05-12T01:15:17.717Z,99.90
2019-05-12T01:18:01.363Z,99.90
2019-05-12T01:20:47.772Z,99.90
2019-05-12T01:23:31.788Z,99.90
2019-05-12T01:29:02.026Z,99.90
2019-05-12T01:34:49.524Z,99.90
2019-05-12T01:37:33.378Z,99.90
2019-05-12T01:40:19.064Z,99.90
2019-05-12T01:43:03.754Z,99.90
2019-05-12T01:45:50.245Z,99.90
2019-05-12T01:48:34.371Z,99.90
2019-05-12T01:51:18.255Z,99.90
2019-05-12T01:54:12.910Z,99.90
2019-05-12T01:56:48.435Z,99.90
2019-05-12T01:59:32.711Z,99.90
2019-05-12T02:02:17.867Z,99.90
2019-05-12T02:05:08.529Z,99.90
2019-05-12T02:08:09.701Z,99.90
2019-05-12T02:11:31.091Z,99.90
2019-05-12T02:14:14.733Z,99.90
2019-05-12T02:16:47.754Z,99.90
2019-05-12T02:19:31.755Z,99.90
2019-05-12T02:22:18.870Z,99.90
2019-05-12T02:25:02.818Z,99.90
2019-05-12T02:27:47.808Z,99.90
2019-05-12T02:30:31.678Z,99.90
2019-05-12T02:33:18.365Z,99.90
2019-05-12T02:36:04.677Z,99.90
2019-05-12T02:38:49.406Z,99.90
2019-05-12T02:41:34.532Z,99.90
2019-05-12T02:44:19.444Z,99.90
2019-05-12T02:47:05.154Z,99.90
2019-05-12T02:49:49.427Z,99.90
2019-05-12T02:52:34.714Z,99.90
2019-05-12T02:55:20.199Z,99.90
2019-05-12T02:58:05.196Z,99.90
2019-05-12T03:00:49.950Z,99.90
2019-05-12T03:03:35.399Z,99.90
2019-05-12T03:06:20.134Z,99.90
2019-05-12T03:09:07.621Z,99.90
2019-05-12T03:11:55.498Z,99.90
2019-05-12T03:14:40.844Z,99.90
2019-05-12T03:17:25.340Z,99.90
2019-05-12T03:20:10.217Z,99.90
2019-05-12T03:22:55.497Z,99.90
2019-05-12T03:25:40.237Z,99.90
2019-05-12T03:28:25.811Z,99.90
2019-05-12T03:31:10.529Z,99.90
2019-05-12T03:33:59.900Z,99.90
2019-05-12T03:36:43.192Z,99.90
2019-05-12T03:39:26.411Z,99.90
2019-05-12T03:42:10.319Z,99.90
2019-05-12T03:44:55.079Z,99.90
2019-05-12T03:47:45.187Z,99.90
2019-05-12T03:50:27.629Z,99.90
2019-05-12T03:53:15.104Z,99.90
2019-05-12T03:55:57.282Z,99.90
2019-05-12T03:58:41.235Z,99.90
2019-05-12T04:01:25.894Z,99.90
2019-05-12T04:04:09.697Z,99.90
2019-05-12T04:06:54.448Z,99.90
2019-05-12T04:09:38.524Z,99.90
2019-05-12T04:12:25.621Z,99.90
2019-05-12T04:15:17.424Z,99.90
2019-05-12T04:18:05.535Z,99.90
2019-05-12T04:20:49.151Z,99.90
2019-05-12T04:23:34.895Z,99.90
2019-05-12T04:26:19.676Z,99.90
2019-05-12T04:29:05.077Z,99.90
2019-05-12T04:31:51.120Z,99.90
2019-05-12T04:34:35.198Z,99.90
2019-05-12T04:37:07.460Z,99.90
2019-05-12T04:39:55.215Z,99.90
2019-05-12T04:42:38.350Z,99.90
2019-05-12T04:45:25.528Z,99.90
2019-05-12T04:48:10.942Z,99.90
2019-05-12T04:50:57.486Z,99.90
2019-05-12T04:53:44.884Z,99.90
2019-05-12T04:56:28.247Z,99.90
2019-05-12T04:59:15.649Z,99.90
2019-05-12T05:01:59.032Z,99.90
2019-05-12T05:04:44.128Z,99.90
2019-05-12T05:07:28.555Z,99.90
2019-05-12T05:10:14.524Z,99.90
2019-05-12T05:12:58.939Z,99.90
2019-05-12T05:15:44.601Z,99.90
2019-05-12T05:18:28.713Z,99.90
2019-05-12T05:21:13.894Z,99.90
2019-05-12T05:23:58.740Z,99.90
2019-05-12T05:26:43.716Z,99.90
2019-05-12T05:32:14.037Z,99.90
2019-05-12T05:34:58.559Z,99.90
2019-05-12T05:37:39.621Z,99.90
2019-05-12T05:40:36.156Z,99.90
2019-05-12T05:43:13.895Z,99.90
2019-05-12T05:46:08.003Z,99.90
2019-05-12T05:48:43.261Z,99.90
2019-05-12T05:51:54.377Z,99.90
2019-05-12T05:54:39.830Z,99.90
2019-05-12T05:57:25.825Z,99.80
2019-05-12T06:00:19.166Z,99.90
2019-05-12T06:02:56.456Z,99.90
2019-05-12T06:05:40.819Z,99.90
2019-05-12T06:08:25.106Z,99.90
2019-05-12T06:11:16.895Z,99.90
2019-05-12T06:13:55.972Z,99.90
2019-05-12T06:16:40.642Z,99.90
2019-05-12T06:19:26.243Z,99.90
2019-05-12T06:22:15.051Z,99.90
2019-05-12T06:24:58.921Z,99.90
2019-05-12T06:27:44.306Z,99.60
2019-05-12T06:30:35.826Z,99.80
2019-05-12T06:33:16.971Z,99.20
2019-05-12T06:36:03.441Z,99.10
2019-05-12T06:41:56.992Z,98.80
2019-05-12T06:44:39.755Z,99.50
2019-05-12T06:47:24.212Z,98.60
2019-05-12T06:50:08.971Z,98.40
2019-05-12T06:52:53.179Z,98.20
2019-05-12T06:55:39.392Z,98.30
2019-05-12T06:58:29.608Z,98.30
2019-05-12T07:01:14.271Z,97.80
2019-05-12T07:04:00.531Z,97.50
2019-05-12T07:06:44.173Z,97.40
2019-05-12T07:09:32.050Z,96.20
2019-05-12T07:12:15.289Z,96.70
2019-05-12T07:14:59.497Z,96.30
2019-05-12T07:17:49.917Z,95.90
2019-05-12T07:20:46.796Z,93.90
2019-05-12T07:26:33.882Z,93.50
2019-05-12T07:29:18.067Z,94.70
2019-05-12T07:32:07.132Z,95.10
2019-05-12T07:34:48.480Z,94.60
2019-05-12T07:37:37.567Z,95.00
2019-05-12T07:40:27.982Z,94.70
2019-05-12T07:43:09.866Z,94.00
2019-05-12T07:46:02.556Z,94.20
2019-05-12T07:48:48.986Z,93.90
2019-05-12T07:51:30.381Z,93.10
2019-05-12T07:54:15.456Z,90.60
2019-05-12T07:57:05.397Z,91.10
2019-05-12T07:59:45.877Z,90.90
2019-05-12T08:02:32.079Z,91.50
2019-05-12T08:05:20.063Z,91.90
2019-05-12T08:08:06.977Z,91.00
2019-05-12T08:10:51.360Z,91.00
2019-05-12T08:13:39.976Z,91.10
2019-05-12T08:16:25.686Z,90.10
2019-05-12T08:19:08.662Z,90.10
2019-05-12T08:21:54.628Z,88.70
2019-05-12T08:24:43.522Z,90.00
2019-05-12T08:27:24.628Z,88.90
2019-05-12T08:33:14.874Z,89.00
2019-05-12T08:36:05.499Z,90.10
2019-05-12T08:38:46.010Z,89.10
2019-05-12T08:41:30.841Z,88.40
2019-05-12T08:44:17.514Z,87.90
2019-05-12T08:47:03.833Z,87.00
2019-05-12T08:49:55.073Z,88.60
2019-05-12T08:52:37.112Z,88.30
2019-05-12T08:55:22.762Z,86.70
2019-05-12T08:58:05.928Z,90.50
2019-05-12T09:00:50.753Z,89.00
2019-05-12T09:03:34.884Z,90.00
2019-05-12T09:06:20.488Z,85.10
2019-05-12T09:09:07.443Z,88.40
2019-05-12T09:11:51.293Z,84.00
2019-05-12T09:14:41.226Z,86.50
2019-05-12T09:20:09.366Z,85.30
2019-05-12T09:25:43.890Z,81.60
2019-05-12T09:28:25.234Z,79.10
2019-05-12T09:31:09.791Z,80.00
2019-05-12T09:33:55.184Z,79.10
2019-05-12T09:36:39.101Z,78.10
2019-05-12T09:39:25.242Z,77.70
2019-05-12T09:42:09.077Z,78.80
2019-05-12T09:44:53.940Z,80.50
2019-05-12T09:47:27.757Z,82.00
2019-05-12T09:50:25.211Z,80.00
2019-05-12T09:53:11.440Z,77.90
2019-05-12T09:55:58.097Z,79.90
2019-05-12T09:58:40.643Z,85.00
2019-05-12T10:01:29.304Z,81.40
2019-05-12T10:04:15.355Z,79.90
2019-05-12T10:06:56.134Z,84.50
2019-05-12T10:09:40.640Z,82.90
2019-05-12T10:12:29.363Z,80.60
2019-05-12T10:15:13.540Z,80.70
2019-05-12T10:18:00.210Z,73.10
2019-05-12T10:20:45.573Z,76.30
2019-05-12T10:23:29.266Z,79.70
2019-05-12T10:26:14.856Z,76.20
2019-05-12T10:29:13.317Z,79.60
2019-05-12T10:31:45.401Z,78.50
2019-05-12T10:34:36.004Z,76.10
2019-05-12T10:37:19.243Z,77.90
2019-05-12T10:40:03.562Z,79.70
2019-05-12T10:42:49.750Z,78.00
2019-05-12T10:45:35.099Z,69.20
2019-05-12T10:48:19.712Z,75.30
2019-05-12T10:51:04.922Z,76.40
2019-05-12T10:53:59.769Z,75.50
2019-05-12T10:56:56.712Z,76.30
2019-05-12T10:59:45.177Z,79.60
2019-05-12T11:02:30.460Z,78.80
2019-05-12T11:05:21.433Z,80.50
2019-05-12T11:08:06.405Z,75.10
2019-05-12T11:10:50.349Z,76.70
2019-05-12T11:13:33.886Z,77.90
2019-05-12T11:16:22.763Z,73.30
2019-05-12T11:19:10.502Z,73.60
2019-05-12T11:21:53.730Z,78.00
2019-05-12T11:24:38.473Z,75.90
2019-05-12T11:27:10.826Z,74.20
2019-05-12T11:29:54.905Z,77.20
2019-05-12T11:32:38.779Z,79.00
2019-05-12T11:35:23.806Z,76.80
2019-05-12T11:38:08.401Z,77.00
2019-05-12T11:40:53.781Z,79.10
2019-05-12T11:43:38.594Z,70.90
2019-05-12T11:46:23.817Z,73.90
2019-05-12T11:49:09.562Z,73.00
2019-05-12T11:51:54.542Z,73.90
2019-05-12T11:54:41.139Z,76.90
2019-05-12T11:57:26.230Z,76.10
2019-05-12T12:00:13.836Z,76.50
2019-05-12T12:03:02.949Z,79.60
2019-05-12T12:05:44.394Z,80.00
2019-05-12T12:08:17.207Z,79.10
2019-05-12T12:11:01.156Z,78.20
2019-05-12T12:13:45.223Z,75.60
2019-05-12T12:16:18.309Z,71.00
2019-05-12T12:19:05.151Z,64.40
2019-05-12T12:21:50.037Z,67.90
2019-05-12T12:24:38.272Z,73.00
2019-05-12T12:27:29.229Z,69.80
2019-05-12T12:30:15.243Z,68.30
2019-05-12T12:33:00.394Z,73.90
2019-05-12T12:35:45.195Z,72.40
2019-05-12T12:38:29.375Z,74.00
2019-05-12T12:41:14.753Z,78.50
2019-05-12T12:43:58.901Z,79.90
2019-05-12T12:46:33.778Z,75.30
2019-05-12T12:49:33.762Z,76.00
2019-05-12T12:52:18.274Z,75.00
2019-05-12T12:55:05.332Z,78.80
2019-05-12T12:57:50.809Z,77.20
2019-05-12T13:00:46.713Z,80.00
2019-05-12T13:03:27.775Z,79.80
2019-05-12T13:06:07.609Z,78.00
2019-05-12T13:08:54.133Z,82.10
2019-05-12T13:11:39.578Z,78.80
2019-05-12T13:14:28.546Z,80.40
2019-05-12T13:17:13.980Z,86.30
2019-05-12T13:19:58.974Z,87.50
2019-05-12T13:22:44.384Z,85.40
2019-05-12T13:25:28.400Z,85.50
2019-05-12T13:28:18.894Z,82.90
2019-05-12T13:30:49.687Z,87.90
2019-05-12T13:33:49.529Z,84.50
2019-05-12T13:36:35.460Z,81.70
2019-05-12T13:39:11.584Z,81.50
2019-05-12T13:41:56.202Z,80.90
2019-05-12T13:44:43.198Z,83.10
2019-05-12T13:47:34.368Z,86.70
2019-05-12T13:50:21.502Z,79.70
2019-05-12T13:53:08.843Z,82.00
2019-05-12T13:55:49.699Z,85.60
2019-05-12T13:58:42.268Z,84.60
2019-05-12T14:01:24.852Z,83.70
2019-05-12T14:04:27.620Z,82.40
2019-05-12T14:07:17.844Z,82.50
2019-05-12T14:09:58.801Z,84.60
2019-05-12T14:12:43.952Z,86.80
2019-05-12T14:15:29.898Z,81.50
2019-05-12T14:18:20.502Z,85.70
2019-05-12T14:20:50.913Z,84.50
2019-05-12T14:23:50.289Z,85.80
2019-05-12T14:26:39.221Z,86.40
2019-05-12T14:32:05.411Z,89.70
2019-05-12T14:34:38.159Z,89.60
2019-05-12T14:37:23.952Z,89.60
2019-05-12T14:40:13.349Z,86.30
2019-05-12T14:43:19.606Z,85.60
2019-05-12T14:46:06.285Z,89.00
2019-05-12T14:48:50.753Z,89.30
2019-05-12T14:51:34.740Z,87.40
2019-05-12T14:54:18.576Z,87.10
2019-05-12T14:57:03.617Z,88.80
2019-05-12T14:59:47.960Z,87.80
2019-05-12T15:02:33.219Z,89.40
2019-05-12T15:05:17.328Z,90.00
2019-05-12T15:08:01.703Z,90.40
2019-05-12T15:10:47.468Z,88.90
2019-05-12T15:13:34.200Z,90.00
2019-05-12T15:16:18.484Z,90.60
2019-05-12T15:18:50.820Z,90.70
2019-05-12T15:21:38.812Z,90.80
2019-05-12T15:24:24.591Z,90.50
2019-05-12T15:27:00.709Z,90.70
2019-05-12T15:30:19.130Z,91.40
2019-05-12T15:33:10.330Z,91.80
2019-05-12T15:35:54.812Z,92.00
2019-05-12T15:38:43.210Z,91.10
2019-05-12T15:41:27.526Z,90.20
2019-05-12T15:44:14.322Z,90.00
2019-05-12T15:46:57.767Z,92.00
2019-05-12T15:49:44.262Z,92.70
2019-05-12T15:52:29.915Z,92.20
2019-05-12T15:55:17.864Z,92.90
2019-05-12T15:58:05.514Z,92.00
2019-05-12T16:00:49.553Z,91.70
2019-05-12T16:03:23.598Z,91.70
2019-05-12T16:06:24.212Z,92.10
2019-05-12T16:09:09.365Z,93.10
2019-05-12T16:11:54.429Z,93.10
2019-05-12T16:14:41.075Z,91.90
2019-05-12T16:17:27.019Z,92.30
2019-05-12T16:20:10.730Z,92.40
2019-05-12T16:22:55.243Z,92.70
2019-05-12T16:25:39.121Z,93.40
2019-05-12T16:28:24.290Z,93.30
2019-05-12T16:31:09.123Z,92.80
2019-05-12T16:34:01.228Z,93.20
2019-05-12T16:36:41.135Z,93.90
2019-05-12T16:39:30.354Z,94.60
2019-05-12T16:42:15.162Z,93.40
2019-05-12T16:45:06.060Z,93.50
2019-05-12T16:47:49.145Z,94.00
2019-05-12T16:50:34.510Z,94.80
2019-05-12T16:53:22.003Z,94.30
2019-05-12T16:56:06.118Z,94.30
2019-05-12T16:58:50.758Z,93.60
2019-05-12T17:01:35.132Z,93.40
2019-05-12T17:04:19.389Z,93.90
2019-05-12T17:07:09.507Z,94.40
2019-05-12T17:09:39.402Z,94.70
2019-05-12T17:12:31.714Z,95.20
2019-05-12T17:15:10.013Z,95.40
2019-05-12T17:17:59.319Z,95.40
2019-05-12T17:20:40.919Z,95.60
2019-05-12T17:23:26.680Z,96.60
2019-05-12T17:26:13.722Z,95.90
2019-05-12T17:28:59.893Z,96.00
2019-05-12T17:31:46.826Z,96.80
2019-05-12T17:34:33.787Z,96.60
2019-05-12T17:37:17.959Z,95.90
2019-05-12T17:40:03.692Z,96.20
2019-05-12T17:42:49.853Z,96.40
2019-05-12T17:45:34.796Z,96.70
2019-05-12T17:48:19.605Z,96.80
2019-05-12T17:51:04.034Z,97.10
2019-05-12T17:53:48.251Z,97.30
2019-05-12T17:56:37.211Z,97.20
2019-05-12T17:59:27.612Z,97.10
2019-05-12T18:02:05.938Z,97.30
2019-05-12T18:04:53.371Z,97.30
2019-05-12T18:07:39.271Z,97.20
2019-05-12T18:10:23.978Z,97.20
2019-05-12T18:13:14.233Z,97.30
2019-05-12T18:15:55.836Z,96.90
2019-05-12T18:18:39.616Z,97.10
2019-05-12T18:21:28.448Z,97.30
2019-05-12T18:24:11.284Z,97.50
2019-05-12T18:27:03.918Z,97.60
2019-05-12T18:29:43.970Z,98.00
2019-05-12T18:32:27.672Z,98.40
2019-05-12T18:35:13.618Z,97.90
2019-05-12T18:37:46.241Z,97.90
2019-05-12T18:40:34.070Z,97.60
2019-05-12T18:43:18.113Z,97.80
2019-05-12T18:46:06.303Z,98.00
2019-05-12T18:48:54.291Z,97.90
2019-05-12T18:51:36.012Z,98.00
2019-05-12T18:54:20.381Z,98.00
2019-05-12T18:57:07.410Z,98.20
2019-05-12T18:59:55.134Z,98.20
2019-05-12T19:02:37.076Z,98.40
2019-05-12T19:05:29.734Z,98.40
2019-05-12T19:07:56.231Z,98.70
2019-05-12T19:10:44.334Z,98.80
2019-05-12T19:13:26.944Z,98.70
2019-05-12T19:16:11.482Z,98.60
2019-05-12T19:18:56.545Z,98.60
2019-05-12T19:21:40.532Z,98.90
2019-05-12T19:24:26.887Z,98.60
2019-05-12T19:27:16.677Z,98.50
2019-05-12T19:29:57.846Z,98.40
2019-05-12T19:32:51.596Z,98.60
2019-05-12T19:35:59.789Z,98.80
2019-05-12T19:38:48.935Z,99.10
2019-05-12T19:41:36.363Z,99.90
2019-05-12T19:44:23.514Z,99.30
2019-05-12T19:47:05.407Z,99.40
2019-05-12T19:49:50.786Z,99.50
2019-05-12T19:52:37.674Z,99.40
2019-05-12T19:55:24.039Z,99.40
2019-05-12T19:58:11.176Z,99.60
2019-05-12T20:00:55.764Z,99.70
2019-05-12T20:03:40.028Z,99.80
2019-05-12T20:06:25.366Z,99.80
2019-05-12T20:09:10.952Z,99.80
2019-05-12T20:11:55.931Z,99.80
2019-05-12T20:14:28.268Z,99.90
2019-05-12T20:17:12.243Z,99.90
2019-05-12T20:19:56.427Z,99.80
2019-05-12T20:22:40.157Z,99.90
2019-05-12T20:25:25.099Z,99.90
2019-05-12T20:28:11.284Z,99.90
2019-05-12T20:31:00.998Z,99.90
2019-05-12T20:33:40.698Z,99.90
2019-05-12T20:36:25.936Z,99.90
2019-05-12T20:39:17.012Z,99.90
2019-05-12T20:42:00.790Z,99.90
2019-05-12T20:44:44.443Z,99.90
2019-05-12T20:47:28.334Z,99.90
2019-05-12T20:50:14.451Z,99.90
2019-05-12T20:56:03.539Z,99.90
2019-05-12T20:58:47.175Z,99.90
2019-05-12T21:01:33.576Z,99.90
2019-05-12T21:04:22.166Z,99.90
2019-05-12T21:07:04.699Z,99.90
2019-05-12T21:09:49.167Z,99.90
2019-05-12T21:12:33.401Z,99.90
2019-05-12T21:15:20.722Z,99.90
2019-05-12T21:18:07.208Z,99.90
2019-05-12T21:20:52.181Z,99.90
2019-05-12T21:23:34.100Z,99.90
2019-05-12T21:26:18.899Z,99.90
2019-05-12T21:29:04.742Z,99.90
2019-05-12T21:31:50.453Z,99.90
2019-05-12T21:34:34.646Z,99.90
2019-05-12T21:37:20.010Z,99.90
2019-05-12T21:40:06.563Z,99.90
2019-05-12T21:42:50.675Z,99.90
2019-05-12T21:45:34.780Z,99.90
2019-05-12T21:48:23.945Z,99.90
2019-05-12T21:51:09.665Z,99.90
2019-05-12T21:53:56.011Z,99.90
2019-05-12T21:56:44.726Z,99.90
2019-05-12T21:59:29.081Z,99.90
2019-05-12T22:02:09.465Z,99.90
2019-05-12T22:04:56.046Z,99.90
2019-05-12T22:07:40.431Z,99.90
2019-05-12T22:10:26.681Z,99.90
2019-05-12T22:13:16.888Z,99.90
2019-05-12T22:15:59.103Z,99.90
2019-05-12T22:18:43.788Z,99.90
2019-05-12T22:21:27.657Z,99.90
2019-05-12T22:24:11.481Z,99.90
2019-05-12T22:26:55.857Z,99.90
2019-05-12T22:29:40.591Z,99.90
2019-05-12T22:32:28.004Z,99.90
2019-05-12T22:35:20.973Z,99.90
2019-05-12T22:37:57.519Z,99.90
2019-05-12T22:40:41.949Z,99.90
2019-05-12T22:43:14.582Z,99.90
2019-05-12T22:45:58.424Z,99.90
2019-05-12T22:48:45.147Z,99.90
2019-05-12T22:51:29.257Z,99.90
2019-05-12T22:54:14.043Z,99.90
2019-05-12T22:56:58.621Z,99.90
2019-05-12T22:59:44.870Z,99.90
2019-05-12T23:02:30.221Z,99.90
2019-05-12T23:05:20.385Z,99.90
2019-05-12T23:07:50.953Z,99.90
2019-05-12T23:10:34.767Z,99.90
2019-05-12T23:13:20.983Z,99.90
2019-05-12T23:16:06.733Z,99.90
2019-05-12T23:18:50.596Z,99.90
2019-05-12T23:21:35.218Z,99.90
2019-05-12T23:24:19.462Z,99.90
2019-05-12T23:27:08.397Z,99.90
2019-05-12T23:29:50.553Z,99.90
2019-05-12T23:32:35.565Z,99.90
2019-05-12T23:35:19.548Z,99.90
2019-05-12T23:41:13.530Z,99.90
2019-05-12T23:43:58.099Z,99.90
2019-05-12T23:46:43.718Z,99.90
2019-05-12T23:49:27.920Z,99.90
2019-05-12T23:52:14.121Z,99.90
2019-05-12T23:54:58.513Z,99.90
2019-05-12T23:57:31.013Z,99.90
